sensor_id;sensor_type;location;lat;lon;timestamp;pressure;altitude;pressure_sealevel;temperature;humidity
36254;BME280;22291;52.250;21.228;2023-07-31T00:00:51;99638.95;;;17.37;89.80
36254;BME280;22291;52.250;21.228;2023-07-31T00:03:22;99644.94;;;17.33;89.66
36254;BME280;22291;52.250;21.228;2023-07-31T00:05:48;99645.26;;;17.28;89.65
36254;BME280;22291;52.250;21.228;2023-07-31T00:08:14;99636.45;;;17.25;89.80
36254;BME280;22291;52.250;21.228;2023-07-31T00:10:40;99640.11;;;17.23;89.78
36254;BME280;22291;52.250;21.228;2023-07-31T00:13:06;99631.28;;;17.20;89.79
36254;BME280;22291;52.250;21.228;2023-07-31T00:15:33;99633.05;;;17.18;89.80
36254;BME280;22291;52.250;21.228;2023-07-31T00:17:59;99632.41;;;17.15;90.02
36254;BME280;22291;52.250;21.228;2023-07-31T00:32:27;99637.15;;;17.05;90.98
36254;BME280;22291;52.250;21.228;2023-07-31T00:34:53;99639.70;;;16.94;90.98
36254;BME280;22291;52.250;21.228;2023-07-31T00:37:19;99646.34;;;16.93;90.91
36254;BME280;22291;52.250;21.228;2023-07-31T00:39:46;99638.09;;;16.89;90.95
36254;BME280;22291;52.250;21.228;2023-07-31T00:42:12;99634.31;;;16.84;90.67
36254;BME280;22291;52.250;21.228;2023-07-31T00:44:38;99641.06;;;16.80;91.04
36254;BME280;22291;52.250;21.228;2023-07-31T00:47:04;99643.34;;;16.78;91.22
36254;BME280;22291;52.250;21.228;2023-07-31T00:49:32;99641.56;;;16.76;91.24
36254;BME280;22291;52.250;21.228;2023-07-31T00:51:59;99639.37;;;16.72;91.42
36254;BME280;22291;52.250;21.228;2023-07-31T00:54:26;99637.42;;;16.73;91.85
36254;BME280;22291;52.250;21.228;2023-07-31T00:56:53;99644.02;;;16.72;91.86
36254;BME280;22291;52.250;21.228;2023-07-31T00:59:20;99641.30;;;16.72;92.34
36254;BME280;22291;52.250;21.228;2023-07-31T01:01:46;99640.32;;;16.70;92.50
36254;BME280;22291;52.250;21.228;2023-07-31T01:04:16;99632.49;;;16.69;92.26
36254;BME280;22291;52.250;21.228;2023-07-31T01:10:04;99629.67;;;16.65;91.99
36254;BME280;22291;52.250;21.228;2023-07-31T01:12:23;99638.67;;;16.66;92.23
36254;BME280;22291;52.250;21.228;2023-07-31T01:14:51;99637.45;;;16.63;92.72
36254;BME280;22291;52.250;21.228;2023-07-31T01:17:19;99632.94;;;16.61;92.84
36254;BME280;22291;52.250;21.228;2023-07-31T01:19:46;99639.94;;;16.58;92.51
36254;BME280;22291;52.250;21.228;2023-07-31T01:22:32;99645.31;;;16.55;92.68
36254;BME280;22291;52.250;21.228;2023-07-31T01:28:13;99649.52;;;16.49;92.91
36254;BME280;22291;52.250;21.228;2023-07-31T01:30:43;99648.28;;;16.46;92.93
36254;BME280;22291;52.250;21.228;2023-07-31T01:33:12;99646.09;;;16.42;92.46
36254;BME280;22291;52.250;21.228;2023-07-31T01:35:39;99650.54;;;16.40;92.58
36254;BME280;22291;52.250;21.228;2023-07-31T01:38:08;99651.27;;;16.37;92.60
36254;BME280;22291;52.250;21.228;2023-07-31T01:40:34;99651.84;;;16.37;93.07
36254;BME280;22291;52.250;21.228;2023-07-31T01:43:00;99649.48;;;16.35;93.29
36254;BME280;22291;52.250;21.228;2023-07-31T01:45:27;99649.06;;;16.33;93.67
36254;BME280;22291;52.250;21.228;2023-07-31T01:47:53;99645.10;;;16.31;93.10
36254;BME280;22291;52.250;21.228;2023-07-31T01:50:19;99651.28;;;16.28;92.84
36254;BME280;22291;52.250;21.228;2023-07-31T01:52:47;99649.24;;;16.21;92.69
36254;BME280;22291;52.250;21.228;2023-07-31T01:55:14;99652.16;;;16.22;92.66
36254;BME280;22291;52.250;21.228;2023-07-31T01:57:40;99650.73;;;16.18;93.20
36254;BME280;22291;52.250;21.228;2023-07-31T02:00:07;99651.45;;;16.15;93.32
36254;BME280;22291;52.250;21.228;2023-07-31T02:02:34;99657.86;;;16.13;93.47
36254;BME280;22291;52.250;21.228;2023-07-31T02:05:00;99663.25;;;16.10;93.21
36254;BME280;22291;52.250;21.228;2023-07-31T02:07:26;99657.92;;;16.07;93.57
36254;BME280;22291;52.250;21.228;2023-07-31T02:09:52;99661.02;;;16.05;93.64
36254;BME280;22291;52.250;21.228;2023-07-31T02:12:19;99662.89;;;16.01;93.65
36254;BME280;22291;52.250;21.228;2023-07-31T02:14:46;99668.71;;;16.00;94.06
36254;BME280;22291;52.250;21.228;2023-07-31T02:17:12;99662.97;;;15.95;93.89
36254;BME280;22291;52.250;21.228;2023-07-31T02:19:38;99662.34;;;15.92;93.99
36254;BME280;22291;52.250;21.228;2023-07-31T02:22:04;99666.79;;;15.91;94.13
36254;BME280;22291;52.250;21.228;2023-07-31T02:24:31;99664.00;;;15.87;94.35
36254;BME280;22291;52.250;21.228;2023-07-31T02:26:57;99671.53;;;15.84;94.33
36254;BME280;22291;52.250;21.228;2023-07-31T02:29:23;99671.30;;;15.83;94.69
36254;BME280;22291;52.250;21.228;2023-07-31T02:31:50;99671.46;;;15.80;94.62
36254;BME280;22291;52.250;21.228;2023-07-31T02:34:16;99668.51;;;15.79;94.75
36254;BME280;22291;52.250;21.228;2023-07-31T02:36:42;99671.03;;;15.78;94.68
36254;BME280;22291;52.250;21.228;2023-07-31T02:39:08;99676.03;;;15.76;94.72
36254;BME280;22291;52.250;21.228;2023-07-31T02:41:35;99672.86;;;15.74;95.10
36254;BME280;22291;52.250;21.228;2023-07-31T02:44:01;99670.84;;;15.71;94.99
36254;BME280;22291;52.250;21.228;2023-07-31T02:46:27;99678.59;;;15.69;95.19
36254;BME280;22291;52.250;21.228;2023-07-31T02:48:53;99672.48;;;15.66;95.48
36254;BME280;22291;52.250;21.228;2023-07-31T02:51:19;99671.94;;;15.66;95.71
36254;BME280;22291;52.250;21.228;2023-07-31T02:53:47;99671.94;;;15.66;96.00
36254;BME280;22291;52.250;21.228;2023-07-31T02:56:15;99675.22;;;15.66;96.14
36254;BME280;22291;52.250;21.228;2023-07-31T02:58:41;99685.34;;;15.65;96.17
36254;BME280;22291;52.250;21.228;2023-07-31T03:01:07;99691.38;;;15.65;96.10
36254;BME280;22291;52.250;21.228;2023-07-31T03:03:34;99684.75;;;15.66;96.57
36254;BME280;22291;52.250;21.228;2023-07-31T03:06:00;99689.50;;;15.69;96.92
36254;BME280;22291;52.250;21.228;2023-07-31T03:08:26;99676.65;;;15.69;97.02
36254;BME280;22291;52.250;21.228;2023-07-31T03:10:52;99677.11;;;15.72;97.20
36254;BME280;22291;52.250;21.228;2023-07-31T03:13:19;99682.98;;;15.74;97.39
36254;BME280;22291;52.250;21.228;2023-07-31T03:15:45;99683.44;;;15.76;97.51
36254;BME280;22291;52.250;21.228;2023-07-31T03:18:11;99686.03;;;15.78;97.46
36254;BME280;22291;52.250;21.228;2023-07-31T03:20:43;99693.83;;;15.80;97.68
36254;BME280;22291;52.250;21.228;2023-07-31T03:23:09;99691.20;;;15.83;97.70
36254;BME280;22291;52.250;21.228;2023-07-31T03:25:36;99682.64;;;15.85;97.90
36254;BME280;22291;52.250;21.228;2023-07-31T03:28:02;99681.37;;;15.89;97.91
36254;BME280;22291;52.250;21.228;2023-07-31T03:30:29;99681.44;;;15.92;97.98
36254;BME280;22291;52.250;21.228;2023-07-31T03:32:55;99682.28;;;15.96;98.39
36254;BME280;22291;52.250;21.228;2023-07-31T03:35:22;99685.08;;;16.00;98.44
36254;BME280;22291;52.250;21.228;2023-07-31T03:37:48;99682.22;;;16.02;98.85
36254;BME280;22291;52.250;21.228;2023-07-31T03:40:15;99683.29;;;16.08;98.84
36254;BME280;22291;52.250;21.228;2023-07-31T03:42:41;99687.64;;;16.12;98.77
36254;BME280;22291;52.250;21.228;2023-07-31T03:45:09;99696.28;;;16.14;98.85
36254;BME280;22291;52.250;21.228;2023-07-31T03:47:36;99692.80;;;16.17;98.96
36254;BME280;22291;52.250;21.228;2023-07-31T03:50:02;99695.04;;;16.21;99.09
36254;BME280;22291;52.250;21.228;2023-07-31T03:52:29;99699.20;;;16.25;99.23
36254;BME280;22291;52.250;21.228;2023-07-31T03:54:55;99699.26;;;16.29;99.29
36254;BME280;22291;52.250;21.228;2023-07-31T03:57:23;99697.95;;;16.32;99.04
36254;BME280;22291;52.250;21.228;2023-07-31T03:59:49;99702.70;;;16.35;98.89
36254;BME280;22291;52.250;21.228;2023-07-31T04:02:16;99703.34;;;16.38;98.99
36254;BME280;22291;52.250;21.228;2023-07-31T04:04:44;99702.45;;;16.44;99.05
36254;BME280;22291;52.250;21.228;2023-07-31T04:07:10;99707.42;;;16.48;99.22
36254;BME280;22291;52.250;21.228;2023-07-31T04:09:36;99712.94;;;16.52;99.23
36254;BME280;22291;52.250;21.228;2023-07-31T04:12:02;99721.75;;;16.55;99.18
36254;BME280;22291;52.250;21.228;2023-07-31T04:14:29;99714.00;;;16.57;99.23
36254;BME280;22291;52.250;21.228;2023-07-31T04:16:55;99716.57;;;16.59;99.32
36254;BME280;22291;52.250;21.228;2023-07-31T04:19:21;99708.60;;;16.60;98.91
36254;BME280;22291;52.250;21.228;2023-07-31T04:21:47;99713.90;;;16.63;98.99
36254;BME280;22291;52.250;21.228;2023-07-31T04:24:14;99711.59;;;16.65;98.82
36254;BME280;22291;52.250;21.228;2023-07-31T04:26:40;99720.23;;;16.67;98.23
36254;BME280;22291;52.250;21.228;2023-07-31T04:29:07;99723.96;;;16.69;98.19
36254;BME280;22291;52.250;21.228;2023-07-31T04:31:34;99721.42;;;16.70;97.84
36254;BME280;22291;52.250;21.228;2023-07-31T04:34:00;99722.23;;;16.70;97.84
36254;BME280;22291;52.250;21.228;2023-07-31T04:36:26;99728.11;;;16.72;97.54
36254;BME280;22291;52.250;21.228;2023-07-31T04:38:52;99730.62;;;16.71;97.12
36254;BME280;22291;52.250;21.228;2023-07-31T04:41:18;99739.03;;;16.72;97.04
36254;BME280;22291;52.250;21.228;2023-07-31T04:43:44;99737.31;;;16.74;97.08
36254;BME280;22291;52.250;21.228;2023-07-31T04:46:11;99736.50;;;16.73;96.66
36254;BME280;22291;52.250;21.228;2023-07-31T04:48:37;99743.97;;;16.76;97.11
36254;BME280;22291;52.250;21.228;2023-07-31T04:51:03;99744.98;;;16.78;97.08
36254;BME280;22291;52.250;21.228;2023-07-31T04:53:29;99748.94;;;16.80;96.68
36254;BME280;22291;52.250;21.228;2023-07-31T04:55:55;99744.67;;;16.83;96.68
36254;BME280;22291;52.250;21.228;2023-07-31T04:58:21;99742.98;;;16.85;96.66
36254;BME280;22291;52.250;21.228;2023-07-31T05:00:48;99739.52;;;16.88;96.62
36254;BME280;22291;52.250;21.228;2023-07-31T05:03:14;99739.35;;;16.90;96.47
36254;BME280;22291;52.250;21.228;2023-07-31T05:05:40;99741.72;;;16.92;95.67
36254;BME280;22291;52.250;21.228;2023-07-31T05:08:06;99740.22;;;16.94;95.86
36254;BME280;22291;52.250;21.228;2023-07-31T05:10:32;99750.03;;;16.99;95.61
36254;BME280;22291;52.250;21.228;2023-07-31T05:12:58;99745.38;;;16.99;94.94
36254;BME280;22291;52.250;21.228;2023-07-31T05:15:24;99749.30;;;17.02;94.98
36254;BME280;22291;52.250;21.228;2023-07-31T05:17:50;99746.80;;;17.03;94.98
36254;BME280;22291;52.250;21.228;2023-07-31T05:20:17;99745.84;;;17.05;95.05
36254;BME280;22291;52.250;21.228;2023-07-31T05:22:43;99752.90;;;17.06;94.52
36254;BME280;22291;52.250;21.228;2023-07-31T05:25:09;99753.91;;;17.08;94.66
36254;BME280;22291;52.250;21.228;2023-07-31T05:27:35;99754.45;;;17.07;94.32
36254;BME280;22291;52.250;21.228;2023-07-31T05:30:02;99751.59;;;17.10;94.90
36254;BME280;22291;52.250;21.228;2023-07-31T05:32:29;99747.54;;;17.13;94.75
36254;BME280;22291;52.250;21.228;2023-07-31T05:34:56;99747.59;;;17.17;95.11
36254;BME280;22291;52.250;21.228;2023-07-31T05:37:22;99748.06;;;17.23;94.78
36254;BME280;22291;52.250;21.228;2023-07-31T05:39:49;99757.59;;;17.32;95.69
36254;BME280;22291;52.250;21.228;2023-07-31T05:42:16;99759.47;;;17.42;96.22
36254;BME280;22291;52.250;21.228;2023-07-31T05:44:42;99757.86;;;17.50;96.53
36254;BME280;22291;52.250;21.228;2023-07-31T05:47:09;99754.63;;;17.58;95.99
36254;BME280;22291;52.250;21.228;2023-07-31T05:49:35;99758.00;;;17.61;95.11
36254;BME280;22291;52.250;21.228;2023-07-31T05:52:01;99766.94;;;17.71;94.82
36254;BME280;22291;52.250;21.228;2023-07-31T05:54:28;99762.47;;;17.73;93.73
36254;BME280;22291;52.250;21.228;2023-07-31T05:56:54;99767.61;;;17.78;93.59
36254;BME280;22291;52.250;21.228;2023-07-31T05:59:20;99768.25;;;17.81;92.81
36254;BME280;22291;52.250;21.228;2023-07-31T06:01:46;99776.69;;;17.86;92.69
36254;BME280;22291;52.250;21.228;2023-07-31T06:04:13;99773.61;;;17.87;92.00
36254;BME280;22291;52.250;21.228;2023-07-31T06:06:39;99781.86;;;17.91;91.46
36254;BME280;22291;52.250;21.228;2023-07-31T06:09:05;99777.39;;;17.92;91.38
36254;BME280;22291;52.250;21.228;2023-07-31T06:11:33;99785.27;;;17.98;91.82
36254;BME280;22291;52.250;21.228;2023-07-31T06:13:59;99786.17;;;18.05;92.01
36254;BME280;22291;52.250;21.228;2023-07-31T06:16:25;99785.06;;;18.10;91.23
36254;BME280;22291;52.250;21.228;2023-07-31T06:18:52;99791.36;;;18.14;90.48
36254;BME280;22291;52.250;21.228;2023-07-31T06:21:18;99791.25;;;18.20;89.88
36254;BME280;22291;52.250;21.228;2023-07-31T06:23:45;99794.58;;;18.23;89.41
36254;BME280;22291;52.250;21.228;2023-07-31T06:26:11;99790.58;;;18.31;89.47
36254;BME280;22291;52.250;21.228;2023-07-31T06:28:37;99796.32;;;18.39;89.37
36254;BME280;22291;52.250;21.228;2023-07-31T06:31:03;99792.84;;;18.42;88.10
36254;BME280;22291;52.250;21.228;2023-07-31T06:33:29;99794.84;;;18.45;88.68
36254;BME280;22291;52.250;21.228;2023-07-31T06:35:56;99790.98;;;18.50;88.25
36254;BME280;22291;52.250;21.228;2023-07-31T06:38:25;99789.65;;;18.53;88.23
36254;BME280;22291;52.250;21.228;2023-07-31T06:40:52;99793.02;;;18.56;87.56
36254;BME280;22291;52.250;21.228;2023-07-31T06:43:19;99792.27;;;18.59;88.15
36254;BME280;22291;52.250;21.228;2023-07-31T06:45:45;99803.08;;;18.65;87.54
36254;BME280;22291;52.250;21.228;2023-07-31T06:48:12;99800.55;;;18.66;86.93
36254;BME280;22291;52.250;21.228;2023-07-31T06:50:38;99797.07;;;18.70;87.64
36254;BME280;22291;52.250;21.228;2023-07-31T06:53:04;99804.14;;;18.74;87.54
36254;BME280;22291;52.250;21.228;2023-07-31T06:55:30;99808.69;;;18.76;86.83
36254;BME280;22291;52.250;21.228;2023-07-31T06:57:56;99810.83;;;18.77;86.79
36254;BME280;22291;52.250;21.228;2023-07-31T07:00:23;99806.88;;;18.74;85.95
36254;BME280;22291;52.250;21.228;2023-07-31T07:02:50;99813.13;;;18.71;85.95
36254;BME280;22291;52.250;21.228;2023-07-31T07:05:17;99807.84;;;18.72;85.91
36254;BME280;22291;52.250;21.228;2023-07-31T07:07:44;99803.73;;;18.72;85.35
36254;BME280;22291;52.250;21.228;2023-07-31T07:10:11;99808.63;;;18.73;85.51
36254;BME280;22291;52.250;21.228;2023-07-31T07:12:37;99810.39;;;18.71;85.35
36254;BME280;22291;52.250;21.228;2023-07-31T07:15:04;99815.69;;;18.74;85.42
36254;BME280;22291;52.250;21.228;2023-07-31T07:17:31;99813.16;;;18.75;85.23
36254;BME280;22291;52.250;21.228;2023-07-31T07:19:59;99807.50;;;18.77;85.40
36254;BME280;22291;52.250;21.228;2023-07-31T07:22:26;99809.87;;;18.79;85.04
36254;BME280;22291;52.250;21.228;2023-07-31T07:24:53;99806.16;;;18.81;84.78
36254;BME280;22291;52.250;21.228;2023-07-31T07:27:19;99808.03;;;18.87;84.87
36254;BME280;22291;52.250;21.228;2023-07-31T07:29:46;99811.73;;;18.88;84.25
36254;BME280;22291;52.250;21.228;2023-07-31T07:32:13;99820.17;;;18.89;84.28
36254;BME280;22291;52.250;21.228;2023-07-31T07:34:39;99819.23;;;18.95;84.54
36254;BME280;22291;52.250;21.228;2023-07-31T07:37:05;99827.02;;;19.10;84.81
36254;BME280;22291;52.250;21.228;2023-07-31T07:39:32;99818.31;;;19.21;84.35
36254;BME280;22291;52.250;21.228;2023-07-31T07:41:58;99815.05;;;19.32;84.17
36254;BME280;22291;52.250;21.228;2023-07-31T07:44:24;99824.19;;;19.47;84.73
36254;BME280;22291;52.250;21.228;2023-07-31T07:46:50;99815.72;;;19.67;84.13
36254;BME280;22291;52.250;21.228;2023-07-31T07:49:17;99823.72;;;19.93;84.51
36254;BME280;22291;52.250;21.228;2023-07-31T07:51:43;99817.22;;;20.27;84.67
36254;BME280;22291;52.250;21.228;2023-07-31T07:54:09;99811.63;;;20.58;84.44
36254;BME280;22291;52.250;21.228;2023-07-31T07:56:35;99811.14;;;20.87;82.06
36254;BME280;22291;52.250;21.228;2023-07-31T07:59:02;99809.38;;;21.14;80.77
36254;BME280;22291;52.250;21.228;2023-07-31T08:01:28;99810.77;;;21.36;78.89
36254;BME280;22291;52.250;21.228;2023-07-31T08:03:54;99809.21;;;21.49;78.46
36254;BME280;22291;52.250;21.228;2023-07-31T08:06:21;99815.08;;;21.69;78.90
36254;BME280;22291;52.250;21.228;2023-07-31T08:08:48;99819.34;;;21.95;77.88
36254;BME280;22291;52.250;21.228;2023-07-31T08:11:14;99814.77;;;22.08;75.88
36254;BME280;22291;52.250;21.228;2023-07-31T08:13:41;99814.31;;;22.20;75.60
36254;BME280;22291;52.250;21.228;2023-07-31T08:16:07;99819.59;;;22.37;74.43
36254;BME280;22291;52.250;21.228;2023-07-31T08:18:35;99817.00;;;22.45;73.62
36254;BME280;22291;52.250;21.228;2023-07-31T08:21:02;99806.66;;;22.64;73.29
36254;BME280;22291;52.250;21.228;2023-07-31T08:23:29;99806.97;;;22.80;72.77
36254;BME280;22291;52.250;21.228;2023-07-31T08:25:55;99807.59;;;23.02;72.17
36254;BME280;22291;52.250;21.228;2023-07-31T08:28:21;99805.52;;;23.21;70.80
36254;BME280;22291;52.250;21.228;2023-07-31T08:30:47;99808.98;;;23.28;70.78
36254;BME280;22291;52.250;21.228;2023-07-31T08:33:16;99803.27;;;23.50;69.87
36254;BME280;22291;52.250;21.228;2023-07-31T08:35:42;99802.02;;;23.58;69.02
36254;BME280;22291;52.250;21.228;2023-07-31T08:38:08;99803.77;;;23.60;68.84
36254;BME280;22291;52.250;21.228;2023-07-31T08:40:37;99805.09;;;23.86;67.11
36254;BME280;22291;52.250;21.228;2023-07-31T08:43:04;99813.23;;;24.01;66.36
36254;BME280;22291;52.250;21.228;2023-07-31T08:45:32;99801.22;;;24.15;67.33
36254;BME280;22291;52.250;21.228;2023-07-31T08:47:59;99801.30;;;24.54;67.72
36254;BME280;22291;52.250;21.228;2023-07-31T08:50:26;99799.91;;;24.96;65.70
36254;BME280;22291;52.250;21.228;2023-07-31T08:52:53;99793.11;;;25.13;63.84
36254;BME280;22291;52.250;21.228;2023-07-31T08:55:20;99788.98;;;25.37;64.22
36254;BME280;22291;52.250;21.228;2023-07-31T08:57:48;99788.30;;;25.64;63.20
36254;BME280;22291;52.250;21.228;2023-07-31T09:00:17;99795.60;;;25.86;60.48
36254;BME280;22291;52.250;21.228;2023-07-31T09:03:01;99795.15;;;25.88;58.90
36254;BME280;22291;52.250;21.228;2023-07-31T09:05:30;99795.64;;;25.95;58.83
36254;BME280;22291;52.250;21.228;2023-07-31T09:07:57;99791.59;;;26.19;58.01
36254;BME280;22291;52.250;21.228;2023-07-31T09:10:25;99796.23;;;26.42;57.95
36254;BME280;22291;52.250;21.228;2023-07-31T09:12:52;99801.95;;;26.80;56.97
36254;BME280;22291;52.250;21.228;2023-07-31T09:15:19;99789.83;;;27.07;57.00
36254;BME280;22291;52.250;21.228;2023-07-31T09:17:45;99794.27;;;27.29;55.37
36254;BME280;22291;52.250;21.228;2023-07-31T09:20:21;99790.44;;;27.31;54.51
36254;BME280;22291;52.250;21.228;2023-07-31T09:22:51;99787.84;;;27.32;53.30
36254;BME280;22291;52.250;21.228;2023-07-31T09:25:22;99786.00;;;27.25;53.42
36254;BME280;22291;52.250;21.228;2023-07-31T09:28:03;99791.19;;;27.48;53.45
36254;BME280;22291;52.250;21.228;2023-07-31T09:30:46;99789.09;;;27.89;53.98
36254;BME280;22291;52.250;21.228;2023-07-31T09:33:17;99786.47;;;28.20;52.44
36254;BME280;22291;52.250;21.228;2023-07-31T09:35:44;99430.90;;;26.13;51.36
36254;BME280;22291;52.250;21.228;2023-07-31T09:38:13;99779.87;;;28.60;50.98
36254;BME280;22291;52.250;21.228;2023-07-31T09:40:45;99780.63;;;28.69;50.24
36254;BME280;22291;52.250;21.228;2023-07-31T09:43:18;99787.11;;;28.71;48.58
36254;BME280;22291;52.250;21.228;2023-07-31T09:45:46;99785.83;;;28.67;48.57
36254;BME280;22291;52.250;21.228;2023-07-31T09:48:17;99784.06;;;28.73;48.25
36254;BME280;22291;52.250;21.228;2023-07-31T09:50:47;99779.71;;;28.85;47.63
36254;BME280;22291;52.250;21.228;2023-07-31T09:53:16;99786.66;;;28.72;45.32
36254;BME280;22291;52.250;21.228;2023-07-31T09:55:43;99789.91;;;28.58;46.87
36254;BME280;22291;52.250;21.228;2023-07-31T09:58:12;99788.87;;;28.51;46.48
36254;BME280;22291;52.250;21.228;2023-07-31T10:00:39;99785.25;;;28.34;46.00
36254;BME280;22291;52.250;21.228;2023-07-31T10:03:11;99795.97;;;28.06;46.16
36254;BME280;22291;52.250;21.228;2023-07-31T10:05:40;99790.86;;;28.04;46.86
36254;BME280;22291;52.250;21.228;2023-07-31T10:08:16;99786.13;;;27.97;45.49
36254;BME280;22291;52.250;21.228;2023-07-31T10:10:45;99785.95;;;27.95;45.77
36254;BME280;22291;52.250;21.228;2023-07-31T10:13:12;99784.08;;;27.92;45.42
36254;BME280;22291;52.250;21.228;2023-07-31T10:15:40;99780.25;;;28.07;46.39
36254;BME280;22291;52.250;21.228;2023-07-31T10:18:10;99784.31;;;28.32;46.31
36254;BME280;22291;52.250;21.228;2023-07-31T10:20:40;99783.78;;;28.63;46.12
36254;BME280;22291;52.250;21.228;2023-07-31T10:23:08;99784.19;;;28.48;45.01
36254;BME280;22291;52.250;21.228;2023-07-31T11:09:48;99776.30;;;28.98;40.01
36254;BME280;22291;52.250;21.228;2023-07-31T11:12:16;99777.19;;;28.95;38.90
36254;BME280;22291;52.250;21.228;2023-07-31T11:14:43;99784.21;;;28.87;39.70
36254;BME280;22291;52.250;21.228;2023-07-31T11:17:10;99781.78;;;28.76;39.44
36254;BME280;22291;52.250;21.228;2023-07-31T11:19:38;99768.93;;;28.61;39.44
36254;BME280;22291;52.250;21.228;2023-07-31T11:22:05;99780.52;;;28.51;39.28
36254;BME280;22291;52.250;21.228;2023-07-31T11:24:32;99776.11;;;28.33;39.44
36254;BME280;22291;52.250;21.228;2023-07-31T11:27:07;99776.27;;;28.21;40.19
36254;BME280;22291;52.250;21.228;2023-07-31T11:29:33;99775.94;;;28.19;40.56
36254;BME280;22291;52.250;21.228;2023-07-31T11:31:59;99776.66;;;28.28;40.01
36254;BME280;22291;52.250;21.228;2023-07-31T11:34:25;99777.66;;;28.21;39.68
36254;BME280;22291;52.250;21.228;2023-07-31T11:36:55;99770.45;;;28.24;39.65
36254;BME280;22291;52.250;21.228;2023-07-31T11:39:22;99773.63;;;28.30;39.85
36254;BME280;22291;52.250;21.228;2023-07-31T11:41:48;99778.78;;;28.58;39.69
36254;BME280;22291;52.250;21.228;2023-07-31T11:44:14;99766.42;;;28.84;39.56
36254;BME280;22291;52.250;21.228;2023-07-31T11:46:41;99767.26;;;29.07;38.27
36254;BME280;22291;52.250;21.228;2023-07-31T11:49:07;99775.77;;;29.21;37.85
36254;BME280;22291;52.250;21.228;2023-07-31T11:51:36;99768.78;;;28.91;36.48
36254;BME280;22291;52.250;21.228;2023-07-31T11:54:07;99765.20;;;28.73;36.82
36254;BME280;22291;52.250;21.228;2023-07-31T11:56:39;99764.59;;;28.73;36.74
36254;BME280;22291;52.250;21.228;2023-07-31T11:59:06;99759.08;;;28.78;37.19
36254;BME280;22291;52.250;21.228;2023-07-31T12:01:35;99755.61;;;28.86;36.99
36254;BME280;22291;52.250;21.228;2023-07-31T12:04:03;99751.25;;;28.98;37.10
36254;BME280;22291;52.250;21.228;2023-07-31T12:06:35;99753.03;;;28.92;36.63
36254;BME280;22291;52.250;21.228;2023-07-31T12:09:04;99760.62;;;28.79;36.49
36254;BME280;22291;52.250;21.228;2023-07-31T12:11:42;99751.82;;;28.55;35.94
36254;BME280;22291;52.250;21.228;2023-07-31T12:14:30;99748.31;;;28.20;36.05
36254;BME280;22291;52.250;21.228;2023-07-31T12:16:58;99751.09;;;27.99;36.15
36254;BME280;22291;52.250;21.228;2023-07-31T12:19:28;99748.31;;;27.78;36.47
36254;BME280;22291;52.250;21.228;2023-07-31T12:22:01;99755.29;;;27.41;36.55
36254;BME280;22291;52.250;21.228;2023-07-31T12:24:28;99751.84;;;27.12;36.63
36254;BME280;22291;52.250;21.228;2023-07-31T12:26:54;99735.04;;;26.86;37.00
36254;BME280;22291;52.250;21.228;2023-07-31T12:29:22;99750.27;;;26.61;37.29
36254;BME280;22291;52.250;21.228;2023-07-31T12:31:50;99746.41;;;26.39;37.78
36254;BME280;22291;52.250;21.228;2023-07-31T12:34:19;99739.79;;;26.16;37.65
36254;BME280;22291;52.250;21.228;2023-07-31T12:36:47;99740.19;;;26.06;38.57
36254;BME280;22291;52.250;21.228;2023-07-31T12:39:15;99740.53;;;26.00;38.88
36254;BME280;22291;52.250;21.228;2023-07-31T12:41:41;99738.88;;;26.03;39.10
36254;BME280;22291;52.250;21.228;2023-07-31T12:44:08;99738.91;;;26.11;39.66
36254;BME280;22291;52.250;21.228;2023-07-31T12:46:39;99735.66;;;26.24;39.57
36254;BME280;22291;52.250;21.228;2023-07-31T12:49:05;99732.20;;;26.37;39.69
36254;BME280;22291;52.250;21.228;2023-07-31T12:51:32;99730.20;;;26.37;39.43
36254;BME280;22291;52.250;21.228;2023-07-31T12:53:59;99726.41;;;26.31;39.98
36254;BME280;22291;52.250;21.228;2023-07-31T12:56:25;99725.55;;;26.34;39.84
36254;BME280;22291;52.250;21.228;2023-07-31T12:58:51;99722.94;;;26.35;39.80
36254;BME280;22291;52.250;21.228;2023-07-31T13:01:19;99718.06;;;26.23;40.11
36254;BME280;22291;52.250;21.228;2023-07-31T13:03:45;99716.05;;;26.15;39.75
36254;BME280;22291;52.250;21.228;2023-07-31T13:06:14;99716.45;;;25.97;39.93
36254;BME280;22291;52.250;21.228;2023-07-31T13:08:45;99714.44;;;25.78;39.84
36254;BME280;22291;52.250;21.228;2023-07-31T13:11:19;99715.12;;;25.53;40.11
36254;BME280;22291;52.250;21.228;2023-07-31T13:13:45;99713.76;;;25.42;40.37
36254;BME280;22291;52.250;21.228;2023-07-31T13:16:11;99711.20;;;25.31;40.65
36254;BME280;22291;52.250;21.228;2023-07-31T13:18:43;99705.25;;;25.09;40.92
36254;BME280;22291;52.250;21.228;2023-07-31T13:21:10;99705.25;;;25.09;40.92
36254;BME280;22291;52.250;21.228;2023-07-31T13:23:36;99713.97;;;25.07;41.07
36254;BME280;22291;52.250;21.228;2023-07-31T13:26:02;99701.77;;;25.05;41.04
36254;BME280;22291;52.250;21.228;2023-07-31T13:28:28;99699.23;;;25.02;40.96
36254;BME280;22291;52.250;21.228;2023-07-31T13:30:55;99698.62;;;25.14;41.35
36254;BME280;22291;52.250;21.228;2023-07-31T13:33:21;99698.14;;;25.31;41.06
36254;BME280;22291;52.250;21.228;2023-07-31T13:35:47;99692.46;;;25.39;40.82
36254;BME280;22291;52.250;21.228;2023-07-31T13:38:15;99694.03;;;25.40;40.79
36254;BME280;22291;52.250;21.228;2023-07-31T13:40:41;99687.53;;;25.38;40.83
36254;BME280;22291;52.250;21.228;2023-07-31T13:43:07;99685.66;;;25.43;41.46
36254;BME280;22291;52.250;21.228;2023-07-31T13:45:34;99686.27;;;25.63;41.20
36254;BME280;22291;52.250;21.228;2023-07-31T13:48:02;99684.45;;;25.93;41.43
36254;BME280;22291;52.250;21.228;2023-07-31T13:50:31;99689.34;;;26.41;40.40
36254;BME280;22291;52.250;21.228;2023-07-31T13:52:57;99689.34;;;26.41;37.89